BBC Nile — V2FI3 — position and weather

sailwx.info

Track history (hours):
 
Tides and Currents Weather Stations Pressure Air Temp Water Temp Dewpoint Dewpoint Depression Visibility Wind Speed Wind Dir Waves Ship Positions

BBC Nile

Last reported at 2018-Feb-03 02:00 UTC. Time now 2018-Feb-19 11:27 UTC.
Position N 30°40' E 032°20'.
Warning: this ship's position is 16 days out of date.

Length 143 m; draft 6.4 m.

Type: Ship. MMSI: 305682000.

Date/timePositionNaut miles runAvg speedWind from/ knotsBaromVisibWave heightAir tempDewpointWater temp
2018-Feb-03 02:00N 30°40' E 032°20'4 8.5
2018-Feb-03 01:30N 30°45' E 032°20'7 8.7
2018-Feb-03 00:42N 30°52' E 032°19'2 9.6
2018-Feb-03 00:27N 30°54' E 032°19'14 9.1
2018-Feb-02 22:54N 31°08' E 032°19'5 8.3
2018-Feb-02 22:18N 31°13' E 032°21'2 7.6
2018-Feb-02 21:59N 31°15' E 032°21'  
2018-Jan-29 08:17N 39°06' E 017°08'26 4.9
2018-Jan-29 02:53N 38°40' E 016°60'7011.7
2018-Jan-28 20:52N 37°51' E 015°56'514.0
2018-Jan-28 20:30N 37°51' E 015°49'613.0
2018-Jan-28 20:01N 37°53' E 015°41'714.1
2018-Jan-28 19:30N 37°58' E 015°35'611.7
2018-Jan-28 19:00N 38°04' E 015°33'713.7
2018-Jan-28 18:30N 38°10' E 015°35'713.4
2018-Jan-28 18:00N 38°16' E 015°40'611.5
2018-Jan-28 17:30N 38°20' E 015°35'713.6
2018-Jan-28 17:00N 38°20' E 015°26'713.5
2018-Jan-28 16:30N 38°20' E 015°17'713.6
2018-Jan-28 16:00N 38°19' E 015°09'714.1
2018-Jan-28 15:29N 38°18' E 014°60'713.9
2018-Jan-28 14:59N 38°19' E 014°51'2 3.3
2018-Jan-28 14:30N 38°19' E 014°49'0 0.2
2018-Jan-28 14:00N 38°18' E 014°49'713.8
2018-Jan-28 13:30N 38°18' E 014°40'714.2
2018-Jan-28 12:59N 38°18' E 014°31'714.1
2018-Jan-28 12:30N 38°18' E 014°22'714.1
2018-Jan-28 12:00N 38°18' E 014°13'714.2
2018-Jan-28 11:30N 38°18' E 014°04'713.9
2018-Jan-28 11:01N 38°18' E 013°55'713.8
2018-Jan-28 10:29N 38°18' E 013°46'613.6
2018-Jan-28 10:01N 38°18' E 013°38'713.5
2018-Jan-28 09:30N 38°18' E 013°29'713.2
2018-Jan-28 09:01N 38°18' E 013°21'713.7
2018-Jan-28 08:31N 38°18' E 013°12'714.5
2018-Jan-28 08:00N 38°18' E 013°03'814.7
2018-Jan-28 07:29N 38°17' E 012°53'  
2018-Jan-25 16:18N 36°01' W 005°13'415.5
2018-Jan-25 16:00N 36°00' W 005°18'815.5
2018-Jan-25 15:30N 35°58' W 005°27'  
Track history (hours):
 
Tides and Currents Weather Stations Pressure Air Temp Water Temp Dewpoint Dewpoint Depression Visibility Wind Speed Wind Dir Waves Ship Positions

BBC Nile

Last reported at 2018-Feb-03 02:00 UTC. Time now 2018-Feb-19 11:27 UTC.
Position N 30°40' E 032°20'.
Warning: this ship's position is 16 days out of date.

Length 143 m; draft 6.4 m.

Type: Ship. MMSI: 305682000.

Date/timePositionNaut miles runAvg speedWind from/ knotsBaromVisibWave heightAir tempDewpointWater temp
2018-Feb-03 02:00N 30°40' E 032°20'4 8.5
2018-Feb-03 01:30N 30°45' E 032°20'7 8.7
2018-Feb-03 00:42N 30°52' E 032°19'2 9.6
2018-Feb-03 00:27N 30°54' E 032°19'14 9.1
2018-Feb-02 22:54N 31°08' E 032°19'5 8.3
2018-Feb-02 22:18N 31°13' E 032°21'2 7.6
2018-Feb-02 21:59N 31°15' E 032°21'  
2018-Jan-29 08:17N 39°06' E 017°08'26 4.9
2018-Jan-29 02:53N 38°40' E 016°60'7011.7
2018-Jan-28 20:52N 37°51' E 015°56'514.0
2018-Jan-28 20:30N 37°51' E 015°49'613.0
2018-Jan-28 20:01N 37°53' E 015°41'714.1
2018-Jan-28 19:30N 37°58' E 015°35'611.7
2018-Jan-28 19:00N 38°04' E 015°33'713.7
2018-Jan-28 18:30N 38°10' E 015°35'713.4
2018-Jan-28 18:00N 38°16' E 015°40'611.5
2018-Jan-28 17:30N 38°20' E 015°35'713.6
2018-Jan-28 17:00N 38°20' E 015°26'713.5
2018-Jan-28 16:30N 38°20' E 015°17'713.6
2018-Jan-28 16:00N 38°19' E 015°09'714.1
2018-Jan-28 15:29N 38°18' E 014°60'713.9
2018-Jan-28 14:59N 38°19' E 014°51'2 3.3
2018-Jan-28 14:30N 38°19' E 014°49'0 0.2
2018-Jan-28 14:00N 38°18' E 014°49'713.8
2018-Jan-28 13:30N 38°18' E 014°40'714.2
2018-Jan-28 12:59N 38°18' E 014°31'714.1
2018-Jan-28 12:30N 38°18' E 014°22'714.1
2018-Jan-28 12:00N 38°18' E 014°13'714.2
2018-Jan-28 11:30N 38°18' E 014°04'713.9
2018-Jan-28 11:01N 38°18' E 013°55'713.8
2018-Jan-28 10:29N 38°18' E 013°46'613.6
2018-Jan-28 10:01N 38°18' E 013°38'713.5
2018-Jan-28 09:30N 38°18' E 013°29'713.2
2018-Jan-28 09:01N 38°18' E 013°21'713.7
2018-Jan-28 08:31N 38°18' E 013°12'714.5
2018-Jan-28 08:00N 38°18' E 013°03'814.7
2018-Jan-28 07:29N 38°17' E 012°53'  
2018-Jan-25 16:18N 36°01' W 005°13'415.5
2018-Jan-25 16:00N 36°00' W 005°18'815.5
2018-Jan-25 15:30N 35°58' W 005°27'  

Dump ship's entire track history